createdAt,value
2018-07-11T00:01:33.168Z,100153.73
2018-07-11T00:04:38.576Z,100159.36
2018-07-11T00:07:43.857Z,100150.62
2018-07-11T00:10:47.970Z,100154.27
2018-07-11T00:14:02.331Z,100149.54
2018-07-11T00:17:12.226Z,100152.03
2018-07-11T00:20:16.264Z,100153.67
2018-07-11T00:23:23.025Z,100148.69
2018-07-11T00:26:33.943Z,100156.00
2018-07-11T00:29:44.314Z,100162.66
2018-07-11T00:32:51.686Z,100156.13
2018-07-11T00:36:17.646Z,100167.13
2018-07-11T00:39:21.560Z,100161.38
2018-07-11T00:42:28.895Z,100164.86
2018-07-11T00:45:36.546Z,100164.83
2018-07-11T00:48:40.912Z,100172.48
2018-07-11T00:51:44.618Z,100166.48
2018-07-11T00:54:52.121Z,100166.88
2018-07-11T00:58:04.310Z,100167.97
2018-07-11T01:01:16.786Z,100164.27
2018-07-11T01:04:20.676Z,100175.05
2018-07-11T01:07:25.502Z,100175.97
2018-07-11T01:10:31.252Z,100172.57
2018-07-11T01:13:35.056Z,100168.59
2018-07-11T01:16:38.594Z,100169.47
2018-07-11T01:19:44.019Z,100172.87
2018-07-11T01:22:51.159Z,100172.87
2018-07-11T01:25:55.998Z,100164.58
2018-07-11T01:29:00.039Z,100164.62
2018-07-11T01:32:03.709Z,100168.03
2018-07-11T01:35:07.419Z,100168.83
2018-07-11T01:38:11.051Z,100162.41
2018-07-11T01:41:15.177Z,100169.82
2018-07-11T01:44:18.724Z,100168.64
2018-07-11T01:47:22.679Z,100182.44
2018-07-11T01:50:26.344Z,100177.37
2018-07-11T01:53:30.057Z,100169.63
2018-07-11T01:56:33.852Z,100167.74
2018-07-11T01:59:37.901Z,100176.86
2018-07-11T02:02:42.253Z,100178.45
2018-07-11T02:05:47.050Z,100174.50
2018-07-11T02:08:50.761Z,100175.64
2018-07-11T02:11:54.266Z,100174.12
2018-07-11T02:15:04.735Z,100177.78
2018-07-11T02:18:08.342Z,100165.07
2018-07-11T02:21:11.972Z,100165.07
2018-07-11T02:24:15.673Z,100170.02
2018-07-11T02:27:19.026Z,100169.95
2018-07-11T02:30:22.578Z,100169.17
2018-07-11T02:33:28.186Z,100161.87
2018-07-11T02:36:31.841Z,100155.69
2018-07-11T02:39:35.477Z,100158.67
2018-07-11T02:42:39.069Z,100152.59
2018-07-11T02:45:42.701Z,100159.79
2018-07-11T02:48:46.477Z,100167.90
2018-07-11T02:51:50.054Z,100173.44
2018-07-11T02:54:53.713Z,100167.63
2018-07-11T02:58:00.274Z,100164.48
2018-07-11T03:01:03.832Z,100165.61
2018-07-11T03:04:07.347Z,100163.69
2018-07-11T03:07:11.221Z,100167.50
2018-07-11T03:10:14.940Z,100164.95
2018-07-11T03:13:21.359Z,100167.34
2018-07-11T03:16:25.062Z,100176.37
2018-07-11T03:19:31.731Z,100176.75
2018-07-11T03:22:35.419Z,100176.69
2018-07-11T03:25:39.300Z,100185.19
2018-07-11T03:28:42.896Z,100186.19
2018-07-11T03:31:46.568Z,100180.38
2018-07-11T03:34:50.418Z,100186.67
2018-07-11T03:37:53.951Z,100191.34
2018-07-11T03:40:57.494Z,100192.34
2018-07-11T03:44:01.134Z,100188.19
2018-07-11T03:47:04.808Z,100182.72
2018-07-11T03:50:08.384Z,100188.77
2018-07-11T03:53:11.814Z,100188.67
2018-07-11T03:56:15.345Z,100189.00
2018-07-11T03:59:18.976Z,100193.22
2018-07-11T04:02:22.479Z,100197.73
2018-07-11T04:05:26.010Z,100229.99
2018-07-11T04:08:29.526Z,100203.77
2018-07-11T04:11:33.126Z,100204.80
2018-07-11T04:14:36.697Z,100212.18
2018-07-11T04:17:40.291Z,100209.58
2018-07-11T04:20:43.749Z,100206.14
2018-07-11T04:23:47.335Z,100209.17
2018-07-11T04:26:51.003Z,100208.92
2018-07-11T04:29:54.860Z,100205.55
2018-07-11T04:32:58.422Z,100202.48
2018-07-11T04:36:02.796Z,100200.67
2018-07-11T04:39:06.208Z,100207.38
2018-07-11T04:42:09.774Z,100202.70
2018-07-11T04:45:13.340Z,100199.83
2018-07-11T04:48:19.727Z,100198.34
2018-07-11T04:51:23.371Z,100193.63
2018-07-11T04:54:27.258Z,100191.42
2018-07-11T04:57:30.919Z,100199.95
2018-07-11T05:00:34.410Z,100199.07
2018-07-11T05:03:37.899Z,100202.48
2018-07-11T05:06:41.388Z,100201.28
2018-07-11T05:09:45.167Z,100201.70
2018-07-11T05:12:48.625Z,100203.63
2018-07-11T05:15:52.169Z,100203.63
2018-07-11T05:18:55.497Z,100203.64
2018-07-11T05:21:59.057Z,100203.35
2018-07-11T05:25:02.726Z,100206.77
2018-07-11T05:28:06.269Z,100201.67
2018-07-11T05:31:09.839Z,100203.22
2018-07-11T05:34:13.370Z,100202.34
2018-07-11T05:37:16.884Z,100202.23
2018-07-11T05:40:20.311Z,100209.69
2018-07-11T05:43:23.823Z,100210.03
2018-07-11T05:46:27.222Z,100208.91
2018-07-11T05:49:30.920Z,100213.45
2018-07-11T05:52:34.448Z,100209.69
2018-07-11T05:55:37.993Z,100205.44
2018-07-11T05:58:41.540Z,100203.11
2018-07-11T06:01:45.238Z,100198.48
2018-07-11T06:04:48.720Z,100211.44
2018-07-11T06:07:52.189Z,100219.53
2018-07-11T06:10:55.740Z,100225.00
2018-07-11T06:13:59.181Z,100228.67
2018-07-11T06:17:02.651Z,100235.95
2018-07-11T06:20:06.364Z,100240.62
2018-07-11T06:23:09.856Z,100240.00
2018-07-11T06:26:13.484Z,100247.80
2018-07-11T06:29:17.215Z,100249.23
2018-07-11T06:32:20.654Z,100244.13
2018-07-11T06:35:24.083Z,100242.52
2018-07-11T06:38:27.691Z,100245.03
2018-07-11T06:41:31.585Z,100248.05
2018-07-11T06:44:35.187Z,100249.48
2018-07-11T06:47:38.773Z,100251.34
2018-07-11T06:50:42.157Z,100255.09
2018-07-11T06:53:45.633Z,100249.08
2018-07-11T06:56:48.973Z,100250.70
2018-07-11T06:59:52.451Z,100246.61
2018-07-11T07:02:55.718Z,100241.05
2018-07-11T07:05:59.076Z,100235.95
2018-07-11T07:09:02.442Z,100230.64
2018-07-11T07:12:06.161Z,100236.64
2018-07-11T07:15:09.490Z,100245.23
2018-07-11T07:18:12.928Z,100238.49
2018-07-11T07:21:16.158Z,100244.95
2018-07-11T07:24:19.433Z,100236.38
2018-07-11T07:27:22.756Z,100232.17
2018-07-11T07:30:26.096Z,100234.45
2018-07-11T07:33:29.392Z,100242.27
2018-07-11T07:36:32.678Z,100229.00
2018-07-11T07:39:36.028Z,100231.42
2018-07-11T07:42:39.371Z,100236.59
2018-07-11T07:45:44.242Z,100240.02
2018-07-11T07:48:47.630Z,100236.31
2018-07-11T07:51:51.005Z,100234.97
2018-07-11T07:54:54.438Z,100229.20
2018-07-11T07:57:57.876Z,100228.86
2018-07-11T08:01:01.293Z,100230.55
2018-07-11T08:04:04.647Z,100229.94
2018-07-11T08:07:08.002Z,100228.15
2018-07-11T08:10:12.161Z,100224.52
2018-07-11T08:13:15.515Z,100225.47
2018-07-11T08:16:18.793Z,100224.50
2018-07-11T08:19:22.125Z,100227.81
2018-07-11T08:23:43.926Z,100224.82
2018-07-11T08:28:02.683Z,100231.36
2018-07-11T08:31:18.221Z,100225.91
2018-07-11T08:35:48.136Z,100231.83
2018-07-11T08:40:18.222Z,100229.55
2018-07-11T08:43:57.363Z,100228.08
2018-07-11T08:47:17.495Z,100234.37
2018-07-11T08:50:53.855Z,100218.89
2018-07-11T08:56:08.469Z,100217.38
2018-07-11T09:02:36.520Z,100223.14
2018-07-11T09:06:17.054Z,100218.27
2018-07-11T09:11:41.531Z,100217.52
2018-07-11T09:15:05.466Z,100219.02
2018-07-11T09:18:25.525Z,100223.14
2018-07-11T09:24:08.887Z,100228.39
2018-07-11T09:27:12.656Z,100225.19
2018-07-11T09:30:16.285Z,100229.52
2018-07-11T09:33:19.763Z,100224.78
2018-07-11T09:36:23.126Z,100218.97
2018-07-11T09:39:26.545Z,100217.84
2018-07-11T09:42:30.015Z,100219.27
2018-07-11T09:45:33.506Z,100211.20
2018-07-11T09:48:37.042Z,100215.65
2018-07-11T09:51:40.579Z,100214.39
2018-07-11T09:54:44.139Z,100211.28
2018-07-11T09:57:47.741Z,100195.42
2018-07-11T10:00:56.800Z,100194.66
2018-07-11T10:04:00.458Z,100200.11
2018-07-11T10:07:05.254Z,100192.42
2018-07-11T10:10:08.735Z,100185.30
2018-07-11T10:13:12.266Z,100184.73
2018-07-11T10:16:16.445Z,100180.61
2018-07-11T10:19:19.939Z,100175.44
2018-07-11T10:22:23.450Z,100174.00
2018-07-11T10:25:26.951Z,100174.57
2018-07-11T10:28:30.323Z,100170.05
2018-07-11T10:31:33.717Z,100166.02
2018-07-11T10:34:37.170Z,100162.72
2018-07-11T10:37:40.502Z,100158.85
2018-07-11T10:40:43.913Z,100158.45
2018-07-11T10:43:47.812Z,100153.69
2018-07-11T10:46:55.678Z,100151.78
2018-07-11T10:49:59.177Z,100147.51
2018-07-11T10:53:02.810Z,100138.72
2018-07-11T10:56:06.131Z,100136.73
2018-07-11T10:59:10.368Z,100143.75
2018-07-11T11:02:18.625Z,100139.42
2018-07-11T11:05:22.295Z,100145.47
2018-07-11T11:08:26.531Z,100141.72
2018-07-11T11:11:29.949Z,100138.21
2018-07-11T11:14:33.375Z,100136.31
2018-07-11T11:17:36.798Z,100136.66
2018-07-11T11:20:40.142Z,100140.23
2018-07-11T11:23:43.466Z,100136.53
2018-07-11T11:26:46.833Z,100127.41
2018-07-11T11:29:50.213Z,100129.67
2018-07-11T11:32:53.609Z,100121.46
2018-07-11T11:35:57.086Z,100130.41
2018-07-11T11:39:00.398Z,100116.78
2018-07-11T11:42:04.004Z,100114.00
2018-07-11T11:45:07.322Z,100105.56
2018-07-11T11:48:10.604Z,100119.50
2018-07-11T11:51:14.002Z,100115.47
2018-07-11T11:54:17.369Z,100111.37
2018-07-11T11:57:20.899Z,100110.30
2018-07-11T12:00:24.314Z,100121.35
2018-07-11T12:03:27.685Z,100116.09
2018-07-11T12:06:31.116Z,100114.83
2018-07-11T12:09:41.082Z,100117.91
2018-07-11T12:12:44.611Z,100135.98
2018-07-11T12:15:47.844Z,100133.96
2018-07-11T12:18:51.102Z,100135.09
2018-07-11T12:21:54.888Z,100141.95
2018-07-11T12:24:58.325Z,100140.59
2018-07-11T12:28:01.665Z,100143.67
2018-07-11T12:31:05.336Z,100135.98
2018-07-11T12:34:08.796Z,100141.64
2018-07-11T12:37:12.852Z,100146.65
2018-07-11T12:40:16.407Z,100138.48
2018-07-11T12:43:19.865Z,100146.25
2018-07-11T12:46:23.249Z,100142.98
2018-07-11T12:49:26.943Z,100155.39
2018-07-11T12:52:30.408Z,100156.45
2018-07-11T12:55:33.922Z,100161.49
2018-07-11T12:58:37.413Z,100157.06
2018-07-11T13:01:40.741Z,100155.33
2018-07-11T13:04:44.359Z,100147.05
2018-07-11T13:07:47.805Z,100146.27
2018-07-11T13:10:51.376Z,100161.98
2018-07-11T13:13:54.781Z,100139.23
2018-07-11T13:16:58.115Z,100133.50
2018-07-11T13:20:01.393Z,100124.77
2018-07-11T13:23:04.875Z,100126.91
2018-07-11T13:26:08.238Z,100126.28
2018-07-11T13:29:11.623Z,100125.72
2018-07-11T13:32:14.969Z,100123.43
2018-07-11T13:35:18.394Z,100119.52
2018-07-11T13:38:21.741Z,100121.33
2018-07-11T13:41:25.043Z,100122.17
2018-07-11T13:44:28.319Z,100122.64
2018-07-11T13:47:31.646Z,100118.42
2018-07-11T13:50:35.346Z,100114.78
2018-07-11T13:53:38.692Z,100118.22
2018-07-11T13:56:42.645Z,100112.66
2018-07-11T13:59:46.104Z,100120.98
2018-07-11T14:02:49.629Z,100113.36
2018-07-11T14:05:53.072Z,100121.22
2018-07-11T14:08:56.759Z,100124.86
2018-07-11T14:12:00.264Z,100138.87
2018-07-11T14:15:04.134Z,100140.94
2018-07-11T14:18:07.544Z,100140.85
2018-07-11T14:21:10.923Z,100136.43
2018-07-11T14:24:14.389Z,100131.81
2018-07-11T14:27:19.053Z,100125.77
2018-07-11T14:30:24.475Z,100118.97
2018-07-11T14:33:30.910Z,100121.02
2018-07-11T14:36:34.726Z,100121.22
2018-07-11T14:39:38.119Z,100121.42
2018-07-11T14:42:55.988Z,100127.46
2018-07-11T14:46:00.585Z,100125.33
2018-07-11T14:49:05.371Z,100122.64
2018-07-11T14:52:09.449Z,100121.02
2018-07-11T14:55:13.637Z,100122.56
2018-07-11T14:58:19.306Z,100125.05
2018-07-11T15:01:23.939Z,100126.92
2018-07-11T15:04:28.275Z,100122.64
2018-07-11T15:07:32.360Z,100121.58
2018-07-11T15:10:36.056Z,100127.94
2018-07-11T15:13:57.309Z,100119.01
2018-07-11T15:17:31.695Z,100128.61
2018-07-11T15:20:57.035Z,100122.77
2018-07-11T15:24:04.076Z,100118.42
2018-07-11T15:27:08.509Z,100117.47
2018-07-11T15:30:12.304Z,100107.59
2018-07-11T15:33:16.947Z,100104.91
2018-07-11T15:36:20.599Z,100103.45
2018-07-11T15:39:25.277Z,100104.99
2018-07-11T15:42:29.074Z,99912.94
2018-07-11T15:45:32.738Z,100113.27
2018-07-11T15:48:36.391Z,100115.42
2018-07-11T15:51:40.112Z,100106.34
2018-07-11T15:54:43.745Z,100113.84
2018-07-11T15:57:53.048Z,100112.69
2018-07-11T16:01:04.378Z,100107.39
2018-07-11T16:04:08.075Z,100103.09
2018-07-11T16:07:11.656Z,100107.31
2018-07-11T16:10:18.600Z,100101.55
2018-07-11T16:13:24.955Z,100105.52
2018-07-11T16:20:06.297Z,100100.27
2018-07-11T16:23:11.453Z,100100.93
2018-07-11T16:26:15.292Z,100100.25
2018-07-11T16:29:19.102Z,100107.45
2018-07-11T16:32:22.823Z,100103.33
2018-07-11T16:35:26.393Z,100096.80
2018-07-11T16:38:30.203Z,100102.18
2018-07-11T16:41:34.362Z,100100.36
2018-07-11T16:44:39.296Z,100099.41
2018-07-11T16:47:44.355Z,100102.86
2018-07-11T16:50:48.197Z,100097.95
2018-07-11T16:53:52.049Z,100092.41
2018-07-11T16:56:56.167Z,100097.56
2018-07-11T17:00:07.407Z,100094.81
2018-07-11T17:03:17.589Z,100099.52
2018-07-11T17:06:21.401Z,100096.66
2018-07-11T17:09:28.044Z,100095.95
2018-07-11T17:12:31.962Z,100104.33
2018-07-11T17:15:37.542Z,100105.75
2018-07-11T17:18:47.025Z,100106.33
2018-07-11T17:21:50.709Z,100105.66
2018-07-11T17:24:54.502Z,100108.45
2018-07-11T17:28:02.714Z,100107.97
2018-07-11T17:31:06.643Z,100111.34
2018-07-11T17:34:10.846Z,100115.72
2018-07-11T17:37:16.094Z,100114.13
2018-07-11T17:40:24.877Z,100123.72
2018-07-11T17:43:36.717Z,100123.04
2018-07-11T17:46:40.619Z,100122.37
2018-07-11T17:49:53.165Z,100122.95
2018-07-11T17:53:22.269Z,100118.62
2018-07-11T17:56:59.270Z,100123.33
2018-07-11T18:00:10.171Z,100119.97
2018-07-11T18:04:32.937Z,100117.64
2018-07-11T18:07:47.083Z,100121.02
2018-07-11T18:10:54.662Z,100118.52
2018-07-11T18:13:58.018Z,100117.47
2018-07-11T18:18:18.575Z,100119.30
2018-07-11T18:21:52.026Z,100126.09
2018-07-11T18:26:11.414Z,100125.22
2018-07-11T18:29:47.984Z,100125.08
2018-07-11T18:34:02.072Z,100118.76
2018-07-11T18:37:24.133Z,100118.95
2018-07-11T18:42:58.542Z,100117.89
2018-07-11T18:46:25.856Z,100001.12
2018-07-11T18:49:36.544Z,100115.66
2018-07-11T18:53:14.469Z,100114.30
2018-07-11T18:57:05.353Z,100118.17
2018-07-11T19:00:26.123Z,100128.72
2018-07-11T19:03:37.230Z,100135.52
2018-07-11T19:07:14.712Z,100145.72
2018-07-11T19:11:35.833Z,100138.28
2018-07-11T19:14:40.772Z,100143.93
2018-07-11T19:18:02.425Z,100142.64
2018-07-11T19:21:11.677Z,100140.73
2018-07-11T19:24:18.326Z,100143.58
2018-07-11T19:27:37.738Z,100150.80
2018-07-11T19:31:00.882Z,100152.34
2018-07-11T19:35:18.470Z,100156.26
2018-07-11T19:38:51.394Z,100161.55
2018-07-11T19:42:12.187Z,100162.21
2018-07-11T19:45:29.719Z,100169.13
2018-07-11T19:50:54.291Z,100169.69
2018-07-11T19:55:35.514Z,100160.83
2018-07-11T19:58:38.798Z,100172.39
2018-07-11T20:01:43.075Z,100170.97
2018-07-11T20:04:46.448Z,100173.07
2018-07-11T20:07:50.130Z,100181.17
2018-07-11T20:10:53.861Z,100182.43
2018-07-11T20:13:58.164Z,100177.82
2018-07-11T20:17:01.690Z,100177.06
2018-07-11T20:20:06.490Z,100176.27
2018-07-11T20:23:11.138Z,100179.03
2018-07-11T20:26:15.248Z,100181.36
2018-07-11T20:29:19.015Z,100182.23
2018-07-11T20:32:22.610Z,100180.09
2018-07-11T20:35:25.840Z,100189.70
2018-07-11T20:38:29.018Z,100184.05
2018-07-11T20:41:32.510Z,100188.94
2018-07-11T20:44:36.151Z,100188.36
2018-07-11T20:47:40.150Z,100188.83
2018-07-11T20:50:43.598Z,100196.66
2018-07-11T20:53:47.223Z,100196.39
2018-07-11T20:56:50.354Z,100199.70
2018-07-11T21:00:10.712Z,100194.57
2018-07-11T21:04:25.608Z,100200.61
2018-07-11T21:09:27.901Z,100200.05
2018-07-11T21:14:52.064Z,100198.60
2018-07-11T21:18:17.487Z,100204.18
2018-07-11T21:21:20.760Z,100200.48
2018-07-11T21:24:24.974Z,100212.18
2018-07-11T21:27:28.760Z,100207.08
2018-07-11T21:30:34.277Z,100206.50
2018-07-11T21:33:38.881Z,100208.82
2018-07-11T21:36:44.980Z,100206.66
2018-07-11T21:39:48.855Z,100208.00
2018-07-11T21:42:53.035Z,100210.16
2018-07-11T21:45:57.406Z,100214.39
2018-07-11T21:49:00.665Z,100214.26
2018-07-11T21:52:04.230Z,100209.76
2018-07-11T21:55:07.362Z,100209.55
2018-07-11T21:58:10.489Z,100215.94
2018-07-11T22:01:14.246Z,100213.36
2018-07-11T22:04:17.402Z,100214.45
2018-07-11T22:07:20.503Z,100215.47
2018-07-11T22:10:23.687Z,100216.99
2018-07-11T22:13:26.959Z,100218.34
2018-07-11T22:16:30.118Z,100213.36
2018-07-11T22:19:32.938Z,100205.94
2018-07-11T22:22:34.530Z,100208.00
2018-07-11T22:25:36.062Z,100200.70
2018-07-11T22:28:37.575Z,100198.76
2018-07-11T22:31:39.099Z,100211.31
2018-07-11T22:34:40.662Z,100199.81
2018-07-11T22:37:42.181Z,100204.23
2018-07-11T22:40:44.323Z,100201.84
2018-07-11T22:43:45.894Z,100206.73
2018-07-11T22:46:47.414Z,100203.97
2018-07-11T22:49:54.690Z,100207.13
2018-07-11T22:52:56.296Z,100202.65
2018-07-11T22:55:57.814Z,100210.70
2018-07-11T22:58:59.345Z,100206.78
2018-07-11T23:02:00.889Z,100208.81
2018-07-11T23:05:02.483Z,100205.73
2018-07-11T23:08:04.005Z,100211.56
2018-07-11T23:11:05.623Z,100214.72
2018-07-11T23:14:07.185Z,100214.83
2018-07-11T23:17:09.569Z,100212.16
2018-07-11T23:20:11.100Z,100208.46
2018-07-11T23:23:12.638Z,100215.38
2018-07-11T23:26:14.198Z,100212.05
2018-07-11T23:29:15.753Z,100214.65
2018-07-11T23:32:17.281Z,100221.75
2018-07-11T23:35:18.821Z,100223.57
2018-07-11T23:38:20.384Z,100226.80
2018-07-11T23:41:21.954Z,100226.19
2018-07-11T23:44:23.908Z,100226.52
2018-07-11T23:47:25.398Z,100226.33
2018-07-11T23:50:27.372Z,100225.17
2018-07-11T23:53:28.863Z,100225.93
2018-07-11T23:56:30.371Z,100220.41
2018-07-11T23:59:31.914Z,100215.98
